createdAt,value
2023-03-28T00:01:44.415Z,2.60
2023-03-28T00:04:13.726Z,2.50
2023-03-28T00:06:45.433Z,2.50
2023-03-28T00:09:13.374Z,2.50
2023-03-28T00:11:41.399Z,2.50
2023-03-28T00:14:09.369Z,2.50
2023-03-28T00:16:39.580Z,2.50
2023-03-28T00:19:09.907Z,2.50
2023-03-28T00:21:41.431Z,2.50
2023-03-28T00:24:13.596Z,2.50
2023-03-28T00:26:43.032Z,2.40
2023-03-28T00:29:20.796Z,2.30
2023-03-28T00:31:50.422Z,2.30
2023-03-28T00:34:18.922Z,2.30
2023-03-28T00:36:48.272Z,2.30
2023-03-28T00:39:16.182Z,2.20
2023-03-28T00:41:45.779Z,2.20
2023-03-28T00:44:49.544Z,2.20
2023-03-28T00:47:33.572Z,2.20
2023-03-28T00:50:06.210Z,2.20
2023-03-28T00:52:41.151Z,2.10
2023-03-28T00:55:13.565Z,2.10
2023-03-28T00:57:44.570Z,2.10
2023-03-28T01:00:13.738Z,2.10
2023-03-28T01:02:45.660Z,2.10
2023-03-28T01:05:15.021Z,2.00
2023-03-28T01:07:48.799Z,2.10
2023-03-28T01:10:22.471Z,2.10
2023-03-28T01:12:52.442Z,2.20
2023-03-28T01:15:22.488Z,2.20
2023-03-28T01:17:55.906Z,2.20
2023-03-28T01:20:37.197Z,2.20
2023-03-28T01:23:42.933Z,2.20
2023-03-28T01:26:34.598Z,2.10
2023-03-28T01:29:44.422Z,2.20
2023-03-28T01:32:54.609Z,2.10
2023-03-28T01:35:50.913Z,2.10
2023-03-28T01:38:27.646Z,2.10
2023-03-28T01:41:06.165Z,2.10
2023-03-28T01:43:51.673Z,2.00
2023-03-28T01:46:24.532Z,2.00
2023-03-28T01:49:00.752Z,1.90
2023-03-28T01:51:38.489Z,1.90
2023-03-28T01:54:16.069Z,1.90
2023-03-28T01:56:51.416Z,2.00
2023-03-28T01:59:38.412Z,2.00
2023-03-28T02:02:49.419Z,2.00
2023-03-28T02:05:28.890Z,2.00
2023-03-28T02:07:58.990Z,2.10
2023-03-28T02:10:45.250Z,2.10
2023-03-28T02:13:29.193Z,2.10
2023-03-28T02:16:18.936Z,2.10
2023-03-28T02:19:01.842Z,2.00
2023-03-28T02:21:56.515Z,2.10
2023-03-28T02:24:43.311Z,2.00
2023-03-28T02:27:28.472Z,2.00
2023-03-28T02:30:10.212Z,2.00
2023-03-28T02:32:39.450Z,2.00
2023-03-28T02:35:09.129Z,2.00
2023-03-28T02:37:48.857Z,2.00
2023-03-28T02:40:36.555Z,1.90
2023-03-28T02:43:30.656Z,1.90
2023-03-28T02:46:10.295Z,1.80
2023-03-28T02:48:54.346Z,1.90
2023-03-28T02:51:34.509Z,1.90
2023-03-28T02:54:14.637Z,1.90
2023-03-28T02:56:50.945Z,2.00
2023-03-28T02:59:44.943Z,1.90
2023-03-28T03:02:17.770Z,2.00
2023-03-28T03:04:46.722Z,2.00
2023-03-28T03:07:17.976Z,2.00
2023-03-28T03:09:46.603Z,2.00
2023-03-28T03:12:15.570Z,2.00
2023-03-28T03:14:44.830Z,1.90
2023-03-28T03:17:35.792Z,1.90
2023-03-28T03:20:06.684Z,1.90
2023-03-28T03:22:38.878Z,1.80
2023-03-28T03:25:08.544Z,1.80
2023-03-28T03:27:52.902Z,1.70
2023-03-28T03:30:22.882Z,1.60
2023-03-28T03:33:10.235Z,1.50
2023-03-28T03:35:42.058Z,1.50
2023-03-28T03:38:10.924Z,1.40
2023-03-28T03:40:38.929Z,1.30
2023-03-28T03:43:07.010Z,1.30
2023-03-28T03:45:40.503Z,1.30
2023-03-28T03:48:09.494Z,1.20
2023-03-28T03:50:37.940Z,1.20
2023-03-28T03:53:12.751Z,1.10
2023-03-28T03:55:49.191Z,1.20
2023-03-28T03:58:18.652Z,1.10
2023-03-28T04:00:50.784Z,1.10
2023-03-28T04:03:37.570Z,1.10
2023-03-28T04:06:06.702Z,1.00
2023-03-28T04:08:35.474Z,0.90
2023-03-28T04:11:04.857Z,0.90
2023-03-28T04:13:39.131Z,0.80
2023-03-28T04:16:11.840Z,0.80
2023-03-28T04:18:50.911Z,0.70
2023-03-28T04:21:25.763Z,0.70
2023-03-28T04:23:55.366Z,0.60
2023-03-28T04:26:27.904Z,0.60
2023-03-28T04:29:04.030Z,0.60
2023-03-28T04:31:35.861Z,0.50
2023-03-28T04:34:07.198Z,0.50
2023-03-28T04:36:44.974Z,0.40
2023-03-28T04:39:13.618Z,0.40
2023-03-28T04:41:47.637Z,0.30
2023-03-28T04:44:35.815Z,0.30
2023-03-28T04:47:08.598Z,0.30
2023-03-28T04:49:36.532Z,0.30
2023-03-28T04:52:05.000Z,0.30
2023-03-28T04:54:33.251Z,0.20
2023-03-28T04:57:10.018Z,0.30
2023-03-28T04:59:43.279Z,0.30
2023-03-28T05:02:16.933Z,0.20
2023-03-28T05:04:52.315Z,0.20
2023-03-28T05:07:20.666Z,0.20
2023-03-28T05:09:48.624Z,0.20
2023-03-28T05:12:16.548Z,0.10
2023-03-28T05:14:57.877Z,0.10
2023-03-28T05:17:27.396Z,0.10
2023-03-28T05:19:58.535Z,0.10
2023-03-28T05:22:33.719Z,0.10
2023-03-28T05:25:02.086Z,0.10
2023-03-28T05:27:30.627Z,0.20
2023-03-28T05:29:58.556Z,0.10
2023-03-28T05:32:28.618Z,0.20
2023-03-28T05:34:57.155Z,0.20
2023-03-28T05:37:29.623Z,0.10
2023-03-28T05:39:59.116Z,0.10
2023-03-28T05:42:27.018Z,0.10
2023-03-28T05:44:55.184Z,0.20
2023-03-28T05:47:39.209Z,0.20
2023-03-28T05:50:09.162Z,0.20
2023-03-28T05:52:37.193Z,0.20
2023-03-28T05:55:09.042Z,0.20
2023-03-28T05:57:37.093Z,0.30
2023-03-28T06:00:14.650Z,0.30
2023-03-28T06:02:52.514Z,0.40
2023-03-28T06:05:26.773Z,0.50
2023-03-28T06:07:54.869Z,0.60
2023-03-28T06:10:24.151Z,0.70
2023-03-28T06:13:24.654Z,0.80
2023-03-28T06:15:53.523Z,0.90
2023-03-28T06:18:31.299Z,1.00
2023-03-28T06:20:59.354Z,1.00
2023-03-28T06:23:27.393Z,1.10
2023-03-28T06:25:55.542Z,1.20
2023-03-28T06:28:24.422Z,1.40
2023-03-28T06:31:27.618Z,1.50
2023-03-28T06:33:56.940Z,1.60
2023-03-28T06:36:25.110Z,1.80
2023-03-28T06:38:53.890Z,1.90
2023-03-28T06:41:24.730Z,2.10
2023-03-28T06:43:52.676Z,2.30
2023-03-28T06:46:39.390Z,2.40
2023-03-28T06:49:08.705Z,2.60
2023-03-28T06:51:56.635Z,2.80
2023-03-28T06:54:25.173Z,3.00
2023-03-28T06:56:53.189Z,3.20
2023-03-28T06:59:21.431Z,3.40
2023-03-28T07:01:54.354Z,3.50
2023-03-28T07:04:30.088Z,3.60
2023-03-28T07:06:58.335Z,3.70
2023-03-28T07:09:27.117Z,3.70
2023-03-28T07:12:05.664Z,3.70
2023-03-28T07:14:33.730Z,3.80
2023-03-28T07:17:02.801Z,3.90
2023-03-28T07:19:33.938Z,3.80
2023-03-28T07:22:02.052Z,3.90
2023-03-28T07:24:30.819Z,4.00
2023-03-28T07:27:14.779Z,4.10
2023-03-28T07:29:44.551Z,4.30
2023-03-28T07:32:13.168Z,4.50
2023-03-28T07:34:42.496Z,4.60
2023-03-28T07:37:14.304Z,4.80
2023-03-28T07:39:50.673Z,4.80
2023-03-28T07:42:22.733Z,4.90
2023-03-28T07:44:50.856Z,5.00
2023-03-28T07:47:18.915Z,5.00
2023-03-28T07:49:48.532Z,5.10
2023-03-28T07:52:17.364Z,5.20
2023-03-28T07:54:45.339Z,5.20
2023-03-28T07:57:13.354Z,5.00
2023-03-28T08:00:01.889Z,5.00
2023-03-28T08:02:30.257Z,5.10
2023-03-28T08:04:59.881Z,5.20
2023-03-28T08:07:28.749Z,5.10
2023-03-28T08:09:58.477Z,5.00
2023-03-28T08:12:31.445Z,5.00
2023-03-28T08:14:59.461Z,5.00
2023-03-28T08:17:28.842Z,5.00
2023-03-28T08:19:59.390Z,5.10
2023-03-28T08:22:57.440Z,5.20
2023-03-28T08:25:51.698Z,5.30
2023-03-28T08:28:23.532Z,5.40
2023-03-28T08:30:51.988Z,5.30
2023-03-28T08:33:19.968Z,5.30
2023-03-28T08:35:52.498Z,5.20
2023-03-28T08:38:21.994Z,5.10
2023-03-28T08:41:00.936Z,5.20
2023-03-28T08:43:52.839Z,5.10
2023-03-28T08:46:23.742Z,5.10
2023-03-28T08:48:54.113Z,5.40
2023-03-28T08:51:28.134Z,5.60
2023-03-28T08:54:04.570Z,5.90
2023-03-28T08:56:36.430Z,6.00
2023-03-28T08:59:09.540Z,6.20
2023-03-28T09:01:37.860Z,6.40
2023-03-28T09:04:06.599Z,6.60
2023-03-28T09:06:40.965Z,6.50
2023-03-28T09:09:23.810Z,6.40
2023-03-28T09:12:21.665Z,6.70
2023-03-28T09:15:12.251Z,6.80
2023-03-28T09:17:48.078Z,7.00
2023-03-28T09:20:24.765Z,7.20
2023-03-28T09:23:07.945Z,7.40
2023-03-28T09:25:58.311Z,7.60
2023-03-28T09:28:36.331Z,7.80
2023-03-28T09:31:09.110Z,8.10
2023-03-28T09:33:40.634Z,8.20
2023-03-28T09:36:14.711Z,8.50
2023-03-28T09:38:47.799Z,9.00
2023-03-28T09:41:21.033Z,9.20
2023-03-28T09:44:14.722Z,9.30
2023-03-28T09:47:09.606Z,8.70
2023-03-28T09:49:44.165Z,8.30
2023-03-28T09:52:18.221Z,8.50
2023-03-28T09:54:47.845Z,8.70
2023-03-28T09:57:16.163Z,8.90
2023-03-28T09:59:58.708Z,9.50
2023-03-28T10:02:33.979Z,9.80
2023-03-28T10:05:33.938Z,10.00
2023-03-28T10:08:28.431Z,10.20
2023-03-28T10:11:13.309Z,10.40
2023-03-28T10:13:43.630Z,10.70
2023-03-28T10:16:14.353Z,11.30
2023-03-28T10:19:02.764Z,11.30
2023-03-28T10:21:36.884Z,11.20
2023-03-28T10:24:17.030Z,11.00
2023-03-28T10:26:57.927Z,10.70
2023-03-28T10:29:28.169Z,10.50
2023-03-28T10:31:56.265Z,10.20
2023-03-28T10:34:31.859Z,10.10
2023-03-28T10:36:59.885Z,9.80
2023-03-28T10:39:41.572Z,9.60
2023-03-28T10:42:44.833Z,9.50
2023-03-28T10:45:36.482Z,9.70
2023-03-28T10:48:14.774Z,9.70
2023-03-28T10:50:46.715Z,10.00
2023-03-28T10:53:30.912Z,10.50
2023-03-28T10:56:23.782Z,10.90
2023-03-28T10:59:09.861Z,11.50
2023-03-28T11:01:51.657Z,11.40
2023-03-28T11:04:32.287Z,12.00
2023-03-28T11:07:07.080Z,12.60
2023-03-28T11:09:57.335Z,12.70
2023-03-28T11:13:04.230Z,12.80
2023-03-28T11:15:45.741Z,13.30
2023-03-28T11:18:35.234Z,13.30
2023-03-28T11:21:20.672Z,13.30
2023-03-28T11:24:00.666Z,13.20
2023-03-28T11:27:16.427Z,13.80
2023-03-28T11:30:12.069Z,14.20
2023-03-28T11:32:51.901Z,14.00
2023-03-28T11:35:27.438Z,13.90
2023-03-28T11:38:02.199Z,13.30
2023-03-28T11:40:37.951Z,13.40
2023-03-28T11:43:13.844Z,13.80
2023-03-28T11:45:52.523Z,13.80
2023-03-28T11:48:29.732Z,13.70
2023-03-28T11:51:05.658Z,13.80
2023-03-28T11:53:49.128Z,13.80
2023-03-28T11:56:27.900Z,13.40
2023-03-28T11:59:12.933Z,13.30
2023-03-28T12:01:44.856Z,13.30
2023-03-28T12:04:19.239Z,13.40
2023-03-28T12:07:02.325Z,13.50
2023-03-28T12:09:44.821Z,13.80
2023-03-28T12:12:17.099Z,13.40
2023-03-28T12:14:53.281Z,13.60
2023-03-28T12:17:37.464Z,14.00
2023-03-28T12:20:13.547Z,14.30
2023-03-28T12:22:44.859Z,14.50
2023-03-28T12:25:28.462Z,14.70
2023-03-28T12:28:05.373Z,14.70
2023-03-28T12:30:40.733Z,14.70
2023-03-28T12:33:18.710Z,14.30
2023-03-28T12:36:05.828Z,13.90
2023-03-28T12:38:40.636Z,13.40
2023-03-28T12:41:30.424Z,13.30
2023-03-28T12:44:01.924Z,13.50
2023-03-28T12:46:45.918Z,13.90
2023-03-28T12:49:19.452Z,14.10
2023-03-28T12:51:52.815Z,14.00
2023-03-28T12:54:25.895Z,14.30
2023-03-28T12:57:11.727Z,14.20
2023-03-28T13:00:09.687Z,14.20
2023-03-28T13:03:07.051Z,14.20
2023-03-28T13:05:46.969Z,14.40
2023-03-28T13:08:25.385Z,14.90
2023-03-28T13:11:08.575Z,15.00
2023-03-28T13:13:51.224Z,15.20
2023-03-28T13:16:26.678Z,15.30
2023-03-28T13:19:09.869Z,15.10
2023-03-28T13:21:47.752Z,14.80
2023-03-28T13:24:31.480Z,15.00
2023-03-28T13:27:01.500Z,15.30
2023-03-28T13:29:46.251Z,15.50
2023-03-28T13:32:16.715Z,15.60
2023-03-28T13:34:49.426Z,15.50
2023-03-28T13:37:23.363Z,15.00
2023-03-28T13:39:54.380Z,15.10
2023-03-28T13:42:31.167Z,15.50
2023-03-28T13:45:02.353Z,16.00
2023-03-28T13:47:35.625Z,16.20
2023-03-28T13:50:10.724Z,16.50
2023-03-28T13:52:39.346Z,16.80
2023-03-28T13:55:20.751Z,16.90
2023-03-28T13:57:49.431Z,16.90
2023-03-28T14:00:21.877Z,16.80
2023-03-28T14:02:51.344Z,16.70
2023-03-28T14:05:22.730Z,16.80
2023-03-28T14:07:52.761Z,17.60
2023-03-28T14:10:27.652Z,18.00
2023-03-28T14:12:57.739Z,17.90
2023-03-28T14:15:30.525Z,17.30
2023-03-28T14:18:00.070Z,17.60
2023-03-28T14:20:29.218Z,18.20
2023-03-28T14:23:01.348Z,18.30
2023-03-28T14:25:31.557Z,18.30
2023-03-28T14:28:08.453Z,18.20
2023-03-28T14:30:40.481Z,18.20
2023-03-28T14:33:20.366Z,18.30
2023-03-28T14:35:57.748Z,18.80
2023-03-28T14:38:35.316Z,19.00
2023-03-28T14:41:14.188Z,18.80
2023-03-28T14:43:51.684Z,18.40
2023-03-28T14:46:23.646Z,17.40
2023-03-28T14:48:53.867Z,16.60
2023-03-28T14:51:22.656Z,16.80
2023-03-28T14:53:51.837Z,17.30
2023-03-28T14:56:25.720Z,18.20
2023-03-28T14:58:58.827Z,18.40
2023-03-28T15:01:28.013Z,18.30
2023-03-28T15:04:01.218Z,18.40
2023-03-28T15:06:30.555Z,18.50
2023-03-28T15:09:00.166Z,18.40
2023-03-28T15:11:32.848Z,18.80
2023-03-28T15:14:04.439Z,19.10
2023-03-28T15:16:37.575Z,18.90
2023-03-28T15:19:09.201Z,19.30
2023-03-28T15:21:39.396Z,19.60
2023-03-28T15:24:12.799Z,19.60
2023-03-28T15:26:45.164Z,20.40
2023-03-28T15:29:18.344Z,20.20
2023-03-28T15:31:47.569Z,20.00
2023-03-28T15:34:21.586Z,19.20
2023-03-28T15:36:52.465Z,18.70
2023-03-28T15:39:25.612Z,18.20
2023-03-28T15:42:00.184Z,17.20
2023-03-28T15:44:30.608Z,16.60
2023-03-28T15:47:02.024Z,16.20
2023-03-28T15:49:34.290Z,16.00
2023-03-28T15:52:04.950Z,15.50
2023-03-28T15:54:35.322Z,14.80
2023-03-28T15:57:04.802Z,14.20
2023-03-28T15:59:39.208Z,13.70
2023-03-28T16:02:37.861Z,13.40
2023-03-28T16:05:08.491Z,13.00
2023-03-28T16:07:47.998Z,12.80
2023-03-28T16:10:18.816Z,12.60
2023-03-28T16:13:14.894Z,12.60
2023-03-28T16:16:06.234Z,12.60
2023-03-28T16:18:48.109Z,12.70
2023-03-28T16:21:16.857Z,12.60
2023-03-28T16:23:44.767Z,12.30
2023-03-28T16:26:13.404Z,12.10
2023-03-28T16:28:42.649Z,12.00
2023-03-28T16:31:15.346Z,12.00
2023-03-28T16:33:43.378Z,11.90
2023-03-28T16:36:13.985Z,11.70
2023-03-28T16:38:41.993Z,11.70
2023-03-28T16:41:10.373Z,11.60
2023-03-28T16:43:38.646Z,11.50
2023-03-28T16:46:09.812Z,11.50
2023-03-28T16:48:38.972Z,11.40
2023-03-28T16:51:07.968Z,11.40
2023-03-28T16:53:37.370Z,11.40
2023-03-28T16:56:06.831Z,11.30
2023-03-28T16:58:34.867Z,11.20
2023-03-28T17:01:06.164Z,11.20
2023-03-28T17:03:36.308Z,11.10
2023-03-28T17:06:04.615Z,11.10
2023-03-28T17:08:32.648Z,11.10
2023-03-28T17:11:01.425Z,11.00
2023-03-28T17:13:30.734Z,10.90
2023-03-28T17:15:58.961Z,10.90
2023-03-28T17:18:27.908Z,10.70
2023-03-28T17:21:05.492Z,10.70
2023-03-28T17:23:33.850Z,10.70
2023-03-28T17:26:02.507Z,10.60
2023-03-28T17:28:30.980Z,10.60
2023-03-28T17:30:58.976Z,10.50
2023-03-28T17:33:29.377Z,10.50
2023-03-28T17:35:57.334Z,10.40
2023-03-28T17:38:27.410Z,10.40
2023-03-28T17:40:55.312Z,10.40
2023-03-28T17:43:23.220Z,10.30
2023-03-28T17:45:55.315Z,10.20
2023-03-28T17:48:23.400Z,10.20
2023-03-28T17:50:53.636Z,10.10
2023-03-28T17:53:22.038Z,10.00
2023-03-28T17:55:51.722Z,10.00
2023-03-28T17:58:19.811Z,9.90
2023-03-28T18:00:48.032Z,9.90
2023-03-28T18:03:16.798Z,9.90
2023-03-28T18:06:08.333Z,9.80
2023-03-28T18:08:36.759Z,9.80
2023-03-28T18:11:08.433Z,9.70
2023-03-28T18:13:38.276Z,9.70
2023-03-28T18:16:10.746Z,9.60
2023-03-28T18:18:39.957Z,9.60
2023-03-28T18:21:08.629Z,9.60
2023-03-28T18:23:36.999Z,9.60
2023-03-28T18:26:07.990Z,9.50
2023-03-28T18:28:36.677Z,9.50
2023-03-28T18:31:09.869Z,9.50
2023-03-28T18:33:38.040Z,9.50
2023-03-28T18:36:06.577Z,9.40
2023-03-28T18:38:38.213Z,9.40
2023-03-28T18:41:09.114Z,9.40
2023-03-28T18:43:38.046Z,9.40
2023-03-28T18:46:07.634Z,9.30
2023-03-28T18:48:36.373Z,9.30
2023-03-28T18:51:06.200Z,9.30
2023-03-28T18:53:34.818Z,9.20
2023-03-28T18:56:03.453Z,9.20
2023-03-28T18:58:33.124Z,9.10
2023-03-28T19:01:03.557Z,9.10
2023-03-28T19:03:33.416Z,9.10
2023-03-28T19:06:03.634Z,9.10
2023-03-28T19:08:31.764Z,9.10
2023-03-28T19:11:01.686Z,9.20
2023-03-28T19:13:31.849Z,9.20
2023-03-28T19:16:00.227Z,9.20
2023-03-28T19:18:28.630Z,9.30
2023-03-28T19:20:58.222Z,9.30
2023-03-28T19:23:27.792Z,9.20
2023-03-28T19:25:57.203Z,9.10
2023-03-28T19:28:25.605Z,9.10
2023-03-28T19:31:02.605Z,9.10
2023-03-28T19:33:31.034Z,9.00
2023-03-28T19:35:59.171Z,9.00
2023-03-28T19:38:27.313Z,8.90
2023-03-28T19:40:59.073Z,8.90
2023-03-28T19:43:27.736Z,9.00
2023-03-28T19:46:03.678Z,9.10
2023-03-28T19:48:31.976Z,9.20
2023-03-28T19:51:00.220Z,9.10
2023-03-28T19:53:28.603Z,9.10
2023-03-28T19:55:58.730Z,9.10
2023-03-28T19:58:28.300Z,9.10
2023-03-28T20:00:56.792Z,9.10
2023-03-28T20:03:26.303Z,9.00
2023-03-28T20:05:54.647Z,8.80
2023-03-28T20:08:22.643Z,8.80
2023-03-28T20:10:52.484Z,8.70
2023-03-28T20:13:20.920Z,8.70
2023-03-28T20:15:48.886Z,8.80
2023-03-28T20:18:19.728Z,8.70
2023-03-28T20:20:53.915Z,8.60
2023-03-28T20:23:23.707Z,8.70
2023-03-28T20:25:53.326Z,8.60
2023-03-28T20:28:24.647Z,8.60
2023-03-28T20:30:54.057Z,8.60
2023-03-28T20:33:22.325Z,8.60
2023-03-28T20:35:55.129Z,8.80
2023-03-28T20:38:23.239Z,8.80
2023-03-28T20:40:51.437Z,8.80
2023-03-28T20:43:21.043Z,8.80
2023-03-28T20:45:53.725Z,8.70
2023-03-28T20:48:25.919Z,8.60
2023-03-28T20:50:55.442Z,8.50
2023-03-28T20:53:23.355Z,8.50
2023-03-28T20:56:01.615Z,8.50
2023-03-28T20:58:31.545Z,8.50
2023-03-28T21:01:01.328Z,8.40
2023-03-28T21:03:46.614Z,8.40
2023-03-28T21:06:17.159Z,8.40
2023-03-28T21:08:46.963Z,8.50
2023-03-28T21:11:16.173Z,8.50
2023-03-28T21:13:44.332Z,8.60
2023-03-28T21:16:14.244Z,8.70
2023-03-28T21:18:42.781Z,8.70
2023-03-28T21:21:13.100Z,8.90
2023-03-28T21:23:42.956Z,8.80
2023-03-28T21:26:12.596Z,8.90
2023-03-28T21:28:40.770Z,8.90
2023-03-28T21:31:11.248Z,8.90
2023-03-28T21:33:40.357Z,8.90
2023-03-28T21:36:11.105Z,8.90
2023-03-28T21:38:39.928Z,8.90
2023-03-28T21:41:10.007Z,8.90
2023-03-28T21:43:38.630Z,8.90
2023-03-28T21:46:08.117Z,8.80
2023-03-28T21:48:37.457Z,8.80
2023-03-28T21:51:06.185Z,8.80
2023-03-28T21:53:36.081Z,8.90
2023-03-28T21:56:05.204Z,9.00
2023-03-28T21:58:34.816Z,9.00
2023-03-28T22:01:03.824Z,8.90
2023-03-28T22:03:32.546Z,8.80
2023-03-28T22:06:00.825Z,8.80
2023-03-28T22:08:28.680Z,8.80
2023-03-28T22:10:58.723Z,8.90
2023-03-28T22:13:28.876Z,8.90
2023-03-28T22:15:59.658Z,9.00
2023-03-28T22:18:30.527Z,9.00
2023-03-28T22:21:02.529Z,8.90
2023-03-28T22:23:30.959Z,8.80
2023-03-28T22:25:59.296Z,8.70
2023-03-28T22:28:27.395Z,8.70
2023-03-28T22:30:56.900Z,8.60
2023-03-28T22:33:26.388Z,8.70
2023-03-28T22:35:54.465Z,8.80
2023-03-28T22:38:22.366Z,8.70
2023-03-28T22:40:50.462Z,8.70
2023-03-28T22:43:18.426Z,8.70
2023-03-28T22:45:46.338Z,8.70
2023-03-28T22:48:15.077Z,8.70
2023-03-28T22:50:45.386Z,8.60
2023-03-28T22:53:14.156Z,8.40
2023-03-28T22:55:42.910Z,8.30
2023-03-28T22:58:11.700Z,8.00
2023-03-28T23:00:39.788Z,7.80
2023-03-28T23:03:08.419Z,7.70
2023-03-28T23:05:36.676Z,7.50
2023-03-28T23:08:06.848Z,7.50
2023-03-28T23:10:35.796Z,7.50
2023-03-28T23:13:04.072Z,7.50
2023-03-28T23:15:32.534Z,7.50
2023-03-28T23:18:00.514Z,7.50
2023-03-28T23:20:29.425Z,7.50
2023-03-28T23:22:57.482Z,7.50
2023-03-28T23:25:28.569Z,7.50
2023-03-28T23:27:56.585Z,7.40
2023-03-28T23:30:24.641Z,7.30
2023-03-28T23:32:54.161Z,7.30
2023-03-28T23:35:22.178Z,7.30
2023-03-28T23:37:52.937Z,7.20
2023-03-28T23:40:21.126Z,7.20
2023-03-28T23:42:50.371Z,7.20
2023-03-28T23:45:19.012Z,7.20
2023-03-28T23:47:46.961Z,7.20
2023-03-28T23:50:15.011Z,7.20
2023-03-28T23:52:42.870Z,7.20
2023-03-28T23:55:10.907Z,7.20
2023-03-28T23:57:38.793Z,7.30
